createdAt,value
2022-08-26T00:00:11.523Z,8.80
2022-08-26T00:02:39.996Z,8.47
2022-08-26T00:05:08.239Z,8.33
2022-08-26T00:07:36.010Z,9.30
2022-08-26T00:10:08.476Z,9.13
2022-08-26T00:12:37.514Z,8.97
2022-08-26T00:15:12.868Z,9.67
2022-08-26T00:17:42.260Z,10.37
2022-08-26T00:20:23.500Z,10.93
2022-08-26T00:22:51.272Z,10.20
2022-08-26T00:25:19.507Z,9.97
2022-08-26T00:27:47.905Z,9.70
2022-08-26T00:30:30.151Z,10.20
2022-08-26T00:32:59.356Z,8.30
2022-08-26T00:35:29.552Z,9.37
2022-08-26T00:38:02.599Z,9.60
2022-08-26T00:40:46.080Z,8.63
2022-08-26T00:43:14.803Z,10.00
2022-08-26T00:46:14.275Z,10.20
2022-08-26T00:48:49.244Z,9.40
2022-08-26T00:51:29.721Z,9.77
2022-08-26T00:54:10.785Z,10.70
2022-08-26T00:57:16.470Z,9.70
2022-08-26T00:59:56.865Z,10.33
2022-08-26T01:02:25.276Z,10.93
2022-08-26T01:05:03.369Z,10.40
2022-08-26T01:07:34.986Z,11.97
2022-08-26T01:10:15.518Z,11.87
2022-08-26T01:12:57.490Z,12.33
2022-08-26T01:15:37.733Z,13.60
2022-08-26T01:18:08.069Z,15.07
2022-08-26T01:21:28.749Z,15.07
2022-08-26T01:23:59.948Z,15.43
2022-08-26T01:26:41.353Z,16.13
2022-08-26T01:29:18.818Z,15.43
2022-08-26T01:31:56.680Z,17.53
2022-08-26T01:34:38.826Z,18.73
2022-08-26T01:37:22.164Z,18.97
2022-08-26T01:39:55.965Z,18.73
2022-08-26T01:42:28.660Z,25.30
2022-08-26T01:45:18.592Z,26.20
2022-08-26T01:47:57.018Z,28.53
2022-08-26T01:50:36.171Z,32.13
2022-08-26T01:53:11.958Z,30.90
2022-08-26T01:55:50.452Z,34.83
2022-08-26T01:58:51.887Z,33.93
2022-08-26T02:01:24.214Z,39.70
2022-08-26T02:04:37.982Z,37.43
2022-08-26T02:07:10.231Z,43.47
2022-08-26T02:09:43.161Z,47.50
2022-08-26T02:12:17.215Z,47.60
2022-08-26T02:14:55.325Z,49.47
2022-08-26T02:17:36.340Z,50.50
2022-08-26T02:20:13.063Z,54.50
2022-08-26T02:22:45.175Z,54.43
2022-08-26T02:25:55.526Z,51.20
2022-08-26T02:28:26.546Z,53.50
2022-08-26T02:30:55.649Z,56.03
2022-08-26T02:33:23.460Z,59.87
2022-08-26T02:35:52.478Z,59.50
2022-08-26T02:38:20.582Z,60.20
2022-08-26T02:40:49.059Z,60.40
2022-08-26T02:43:18.922Z,61.87
2022-08-26T02:46:00.815Z,63.80
2022-08-26T02:48:30.651Z,61.50
2022-08-26T02:51:01.876Z,64.70
2022-08-26T02:53:31.809Z,66.63
2022-08-26T02:55:59.897Z,69.67
2022-08-26T02:58:31.889Z,66.03
2022-08-26T03:01:00.183Z,66.60
2022-08-26T03:03:30.366Z,67.37
2022-08-26T03:05:59.118Z,75.37
2022-08-26T03:08:27.330Z,64.93
2022-08-26T03:10:54.991Z,65.00
2022-08-26T03:13:22.507Z,71.30
2022-08-26T03:15:50.222Z,70.17
2022-08-26T03:18:18.357Z,68.87
2022-08-26T03:20:48.706Z,65.30
2022-08-26T03:23:16.412Z,62.77
2022-08-26T03:25:53.944Z,62.70
2022-08-26T03:28:21.478Z,61.80
2022-08-26T03:30:49.312Z,63.30
2022-08-26T03:33:17.749Z,64.60
2022-08-26T03:35:50.607Z,66.20
2022-08-26T03:38:26.977Z,64.70
2022-08-26T03:40:55.655Z,66.57
2022-08-26T03:43:26.798Z,66.93
2022-08-26T03:45:54.327Z,68.60
2022-08-26T03:48:22.342Z,69.60
2022-08-26T03:50:49.977Z,69.87
2022-08-26T03:53:19.888Z,70.27
2022-08-26T03:55:52.039Z,67.73
2022-08-26T03:58:22.018Z,69.60
2022-08-26T04:00:50.125Z,67.17
2022-08-26T04:03:44.338Z,68.33
2022-08-26T04:06:13.147Z,61.60
2022-08-26T04:08:41.109Z,63.67
2022-08-26T04:11:09.002Z,68.83
2022-08-26T04:13:37.671Z,65.43
2022-08-26T04:16:06.423Z,62.93
2022-08-26T04:18:37.259Z,63.53
2022-08-26T04:21:09.730Z,63.97
2022-08-26T04:23:47.686Z,59.87
2022-08-26T04:26:19.946Z,59.07
2022-08-26T04:28:51.833Z,61.60
2022-08-26T04:31:20.662Z,60.10
2022-08-26T04:33:50.953Z,59.50
2022-08-26T04:36:20.113Z,60.33
2022-08-26T04:38:48.390Z,60.90
2022-08-26T04:41:17.397Z,59.00
2022-08-26T04:43:47.587Z,56.37
2022-08-26T04:46:24.763Z,55.93
2022-08-26T04:48:55.410Z,52.87
2022-08-26T04:51:28.046Z,50.70
2022-08-26T04:53:59.279Z,51.70
2022-08-26T04:56:34.096Z,54.50
2022-08-26T04:59:07.250Z,52.17
2022-08-26T05:01:39.587Z,50.97
2022-08-26T05:04:08.206Z,51.23
2022-08-26T05:06:36.987Z,50.37
2022-08-26T05:09:05.950Z,49.63
2022-08-26T05:11:34.446Z,50.30
2022-08-26T05:14:02.513Z,48.53
2022-08-26T05:16:30.516Z,49.37
2022-08-26T05:18:58.255Z,46.53
2022-08-26T05:21:29.190Z,46.20
2022-08-26T05:23:58.949Z,45.80
2022-08-26T05:26:31.032Z,46.00
2022-08-26T05:28:59.230Z,48.87
2022-08-26T05:31:33.540Z,46.30
2022-08-26T05:34:04.764Z,47.23
2022-08-26T05:36:36.016Z,46.00
2022-08-26T05:39:07.965Z,45.77
2022-08-26T05:41:42.350Z,44.63
2022-08-26T05:44:17.527Z,44.53
2022-08-26T05:46:46.222Z,42.50
2022-08-26T05:49:16.456Z,38.80
2022-08-26T05:51:47.983Z,41.40
2022-08-26T05:54:21.710Z,42.33
2022-08-26T05:56:54.523Z,42.30
2022-08-26T05:59:25.856Z,42.90
2022-08-26T06:01:55.757Z,42.63
2022-08-26T06:04:27.357Z,41.30
2022-08-26T06:06:56.713Z,39.50
2022-08-26T06:09:24.720Z,38.40
2022-08-26T06:11:52.385Z,38.57
2022-08-26T06:14:21.226Z,37.13
2022-08-26T06:16:49.836Z,37.70
2022-08-26T06:19:17.866Z,36.93
2022-08-26T06:21:51.327Z,35.37
2022-08-26T06:24:40.770Z,35.00
2022-08-26T06:27:13.702Z,36.50
2022-08-26T06:29:44.456Z,32.27
2022-08-26T06:32:12.012Z,32.67
2022-08-26T06:34:44.663Z,32.50
2022-08-26T06:37:12.155Z,33.10
2022-08-26T06:39:40.260Z,31.20
2022-08-26T06:42:10.966Z,32.00
2022-08-26T06:44:40.987Z,29.33
2022-08-26T06:47:08.793Z,28.87
2022-08-26T06:49:37.302Z,31.73
2022-08-26T06:52:05.096Z,29.27
2022-08-26T06:54:32.656Z,29.67
2022-08-26T06:57:01.246Z,31.13
2022-08-26T06:59:29.004Z,32.47
2022-08-26T07:01:57.001Z,28.30
2022-08-26T07:04:25.078Z,28.97
2022-08-26T07:06:56.798Z,29.47
2022-08-26T07:09:33.142Z,28.13
2022-08-26T07:12:00.702Z,29.40
2022-08-26T07:14:28.352Z,27.47
2022-08-26T07:16:55.947Z,28.40
2022-08-26T07:19:29.882Z,29.23
2022-08-26T07:22:07.174Z,28.60
2022-08-26T07:24:43.067Z,27.63
2022-08-26T07:27:17.718Z,28.77
2022-08-26T07:29:45.467Z,27.10
2022-08-26T07:32:19.869Z,24.70
2022-08-26T07:34:48.922Z,28.07
2022-08-26T07:37:17.530Z,25.60
2022-08-26T07:39:46.357Z,25.93
2022-08-26T07:42:18.433Z,26.57
2022-08-26T07:44:46.724Z,24.17
2022-08-26T07:47:25.431Z,23.13
2022-08-26T07:49:58.125Z,25.50
2022-08-26T07:52:30.463Z,26.47
2022-08-26T07:55:02.824Z,25.50
2022-08-26T07:57:30.935Z,26.13
2022-08-26T07:59:59.819Z,25.80
2022-08-26T08:02:29.998Z,22.83
2022-08-26T08:04:58.580Z,23.60
2022-08-26T08:07:44.222Z,21.90
2022-08-26T08:10:25.218Z,24.00
2022-08-26T08:12:55.452Z,23.30
2022-08-26T08:15:28.937Z,24.73
2022-08-26T08:18:00.243Z,25.43
2022-08-26T08:20:30.636Z,24.37
2022-08-26T08:22:59.261Z,22.90
2022-08-26T08:25:27.529Z,24.40
2022-08-26T08:27:55.063Z,23.13
2022-08-26T08:30:25.338Z,24.77
2022-08-26T08:32:53.672Z,22.27
2022-08-26T08:35:23.669Z,21.23
2022-08-26T08:37:54.837Z,22.47
2022-08-26T08:40:27.816Z,22.10
2022-08-26T08:43:23.070Z,20.67
2022-08-26T08:46:04.359Z,21.27
2022-08-26T08:48:46.371Z,18.87
2022-08-26T08:52:02.145Z,20.50
2022-08-26T08:54:33.987Z,19.10
2022-08-26T08:57:28.209Z,17.43
2022-08-26T09:00:18.930Z,17.20
2022-08-26T09:03:37.440Z,16.43
2022-08-26T09:06:17.044Z,15.50
2022-08-26T09:08:51.083Z,14.80
2022-08-26T09:11:20.989Z,13.70
2022-08-26T09:14:04.773Z,15.20
2022-08-26T09:17:16.985Z,13.67
2022-08-26T09:20:14.281Z,11.87
2022-08-26T09:22:44.162Z,11.07
2022-08-26T09:25:16.003Z,13.73
2022-08-26T09:27:52.813Z,11.70
2022-08-26T09:30:35.437Z,11.10
2022-08-26T09:33:11.024Z,10.90
2022-08-26T09:35:47.562Z,10.60
2022-08-26T09:38:34.192Z,11.03
2022-08-26T09:41:22.369Z,11.50
2022-08-26T09:44:20.794Z,12.03
2022-08-26T09:47:02.066Z,12.60
2022-08-26T09:49:41.380Z,13.60
2022-08-26T09:52:24.665Z,12.60
2022-08-26T09:55:23.880Z,12.80
2022-08-26T09:57:58.206Z,11.87
2022-08-26T10:00:59.410Z,13.63
2022-08-26T10:03:38.407Z,13.33
2022-08-26T10:06:26.711Z,12.20
2022-08-26T10:09:03.597Z,12.10
2022-08-26T10:11:57.206Z,11.80
2022-08-26T10:15:01.766Z,12.03
2022-08-26T10:17:46.506Z,13.03
2022-08-26T10:20:36.285Z,11.23
2022-08-26T10:23:24.550Z,10.70
2022-08-26T10:26:42.968Z,10.70
2022-08-26T10:29:46.010Z,10.70
2022-08-26T10:32:43.076Z,8.70
2022-08-26T10:35:19.315Z,9.77
2022-08-26T10:38:01.095Z,8.53
2022-08-26T10:40:48.936Z,9.43
2022-08-26T10:43:40.830Z,8.80
2022-08-26T10:46:20.805Z,8.63
2022-08-26T10:49:16.596Z,9.27
2022-08-26T10:52:51.914Z,8.10
2022-08-26T10:56:18.833Z,9.37
2022-08-26T10:59:39.848Z,9.33
2022-08-26T11:02:48.305Z,6.57
2022-08-26T11:05:24.254Z,8.50
2022-08-26T11:08:20.264Z,7.63
2022-08-26T11:10:59.812Z,8.50
2022-08-26T11:14:46.159Z,8.17
2022-08-26T11:17:44.870Z,8.70
2022-08-26T11:20:47.433Z,8.87
2022-08-26T11:23:22.417Z,8.17
2022-08-26T11:26:08.675Z,7.83
2022-08-26T11:28:50.725Z,9.40
2022-08-26T11:31:19.547Z,7.93
2022-08-26T11:34:08.712Z,8.23
2022-08-26T11:36:47.091Z,8.63
2022-08-26T11:39:36.612Z,8.77
2022-08-26T11:42:50.469Z,7.80
2022-08-26T11:45:31.528Z,8.23
2022-08-26T11:48:17.906Z,9.20
2022-08-26T11:51:13.460Z,7.77
2022-08-26T11:53:47.449Z,7.93
2022-08-26T11:56:38.177Z,8.20
2022-08-26T11:59:19.014Z,8.13
2022-08-26T12:01:54.411Z,8.20
2022-08-26T12:04:37.869Z,7.60
2022-08-26T12:07:09.408Z,7.50
2022-08-26T12:09:59.113Z,7.80
2022-08-26T12:12:38.745Z,8.23
2022-08-26T12:15:22.853Z,8.10
2022-08-26T12:17:54.387Z,7.60
2022-08-26T12:20:54.354Z,7.77
2022-08-26T12:23:36.393Z,7.60
2022-08-26T12:26:35.628Z,6.90
2022-08-26T12:29:26.911Z,7.60
2022-08-26T12:32:17.626Z,7.50
2022-08-26T12:34:49.116Z,6.40
2022-08-26T12:37:18.891Z,7.97
2022-08-26T12:39:47.956Z,7.10
2022-08-26T12:42:16.015Z,7.60
2022-08-26T12:45:04.053Z,6.53
2022-08-26T12:47:45.493Z,6.60
2022-08-26T12:50:33.123Z,6.40
2022-08-26T12:53:10.031Z,5.50
2022-08-26T12:55:50.577Z,6.90
2022-08-26T12:58:38.818Z,6.70
2022-08-26T13:01:09.394Z,6.77
2022-08-26T13:03:44.548Z,7.07
2022-08-26T13:06:23.688Z,6.10
2022-08-26T13:09:09.187Z,6.17
2022-08-26T13:11:39.421Z,5.83
2022-08-26T13:14:21.081Z,6.63
2022-08-26T13:16:53.615Z,6.20
2022-08-26T13:19:25.958Z,6.17
2022-08-26T13:21:59.507Z,7.03
2022-08-26T13:24:44.246Z,6.37
2022-08-26T13:27:15.270Z,7.00
2022-08-26T13:29:43.107Z,7.33
2022-08-26T13:32:11.245Z,6.30
2022-08-26T13:34:39.254Z,6.83
2022-08-26T13:37:07.628Z,7.70
2022-08-26T13:39:35.108Z,6.70
2022-08-26T13:42:02.672Z,6.20
2022-08-26T13:44:30.556Z,6.07
2022-08-26T13:46:58.691Z,5.60
2022-08-26T13:49:26.528Z,5.87
2022-08-26T13:51:54.251Z,5.23
2022-08-26T13:54:22.503Z,6.13
2022-08-26T13:56:50.212Z,5.50
2022-08-26T13:59:17.996Z,5.57
2022-08-26T14:01:45.714Z,5.20
2022-08-26T14:04:13.284Z,5.53
2022-08-26T14:06:42.435Z,5.40
2022-08-26T14:09:11.530Z,4.80
2022-08-26T14:11:55.035Z,4.83
2022-08-26T14:14:23.707Z,4.23
2022-08-26T14:16:59.290Z,4.00
2022-08-26T14:19:31.557Z,4.97
2022-08-26T14:22:01.927Z,4.90
2022-08-26T14:24:29.854Z,4.40
2022-08-26T14:26:57.621Z,4.07
2022-08-26T14:29:25.178Z,4.70
2022-08-26T14:31:54.130Z,4.30
2022-08-26T14:34:22.519Z,5.10
2022-08-26T14:36:50.063Z,4.90
2022-08-26T14:39:17.605Z,4.90
2022-08-26T14:41:56.643Z,5.20
2022-08-26T14:44:33.537Z,4.73
2022-08-26T14:47:06.751Z,5.03
2022-08-26T14:49:34.373Z,4.90
2022-08-26T14:52:02.336Z,5.20
2022-08-26T14:54:30.215Z,4.67
2022-08-26T14:57:13.066Z,5.47
2022-08-26T14:59:50.468Z,5.40
2022-08-26T15:02:33.566Z,5.30
2022-08-26T15:05:05.108Z,4.80
2022-08-26T15:07:32.896Z,4.73
2022-08-26T15:10:00.816Z,5.90
2022-08-26T15:12:28.403Z,6.10
2022-08-26T15:14:56.530Z,5.60
2022-08-26T15:17:24.512Z,5.43
2022-08-26T15:19:52.928Z,4.80
2022-08-26T15:22:20.471Z,4.33
2022-08-26T15:24:48.280Z,5.87
2022-08-26T15:27:21.356Z,5.27
2022-08-26T15:29:48.865Z,5.20
2022-08-26T15:32:16.453Z,5.10
2022-08-26T15:34:44.439Z,4.73
2022-08-26T15:37:12.757Z,5.57
2022-08-26T15:39:40.862Z,4.60
2022-08-26T15:42:09.273Z,4.60
2022-08-26T15:44:37.016Z,4.50
2022-08-26T15:47:04.797Z,5.03
2022-08-26T15:49:32.808Z,4.47
2022-08-26T15:52:00.410Z,4.67
2022-08-26T15:54:27.909Z,4.60
2022-08-26T15:56:55.571Z,4.80
2022-08-26T15:59:23.403Z,5.40
2022-08-26T16:01:52.312Z,4.90
2022-08-26T16:04:20.543Z,5.30
2022-08-26T16:06:51.574Z,5.90
2022-08-26T16:09:24.439Z,4.80
2022-08-26T16:11:52.999Z,5.20
2022-08-26T16:14:21.786Z,4.80
2022-08-26T16:16:50.858Z,4.97
2022-08-26T16:19:18.486Z,4.60
2022-08-26T16:21:46.692Z,5.30
2022-08-26T16:24:14.887Z,4.63
2022-08-26T16:26:45.381Z,4.00
2022-08-26T16:29:17.794Z,3.87
2022-08-26T16:31:45.888Z,3.93
2022-08-26T16:34:13.353Z,4.00
2022-08-26T16:36:41.224Z,4.60
2022-08-26T16:39:11.758Z,3.83
2022-08-26T16:41:39.764Z,4.40
2022-08-26T16:44:08.924Z,4.13
2022-08-26T16:46:36.918Z,3.90
2022-08-26T16:49:04.927Z,4.03
2022-08-26T16:51:37.691Z,3.40
2022-08-26T16:54:08.940Z,3.40
2022-08-26T16:56:38.047Z,3.60
2022-08-26T16:59:11.622Z,3.47
2022-08-26T17:01:39.254Z,3.17
2022-08-26T17:04:06.934Z,3.07
2022-08-26T17:06:34.770Z,3.60
2022-08-26T17:09:02.430Z,3.50
2022-08-26T17:11:31.162Z,3.60
2022-08-26T17:13:58.693Z,4.53
2022-08-26T17:16:27.176Z,3.67
2022-08-26T17:18:59.872Z,4.20
2022-08-26T17:21:29.445Z,4.10
2022-08-26T17:23:57.146Z,3.80
2022-08-26T17:26:25.193Z,4.30
2022-08-26T17:28:53.888Z,3.83
2022-08-26T17:31:23.682Z,4.00
2022-08-26T17:33:53.661Z,2.93
2022-08-26T17:36:27.478Z,3.80
2022-08-26T17:38:58.479Z,3.40
2022-08-26T17:41:28.366Z,4.00
2022-08-26T17:43:57.247Z,4.00
2022-08-26T17:46:26.067Z,3.77
2022-08-26T17:48:53.696Z,4.40
2022-08-26T17:51:23.610Z,4.20
2022-08-26T17:53:53.605Z,3.77
2022-08-26T17:56:30.070Z,4.07
2022-08-26T17:59:02.471Z,3.20
2022-08-26T18:01:32.778Z,3.27
2022-08-26T18:04:00.971Z,3.23
2022-08-26T18:06:30.937Z,3.13
2022-08-26T18:09:00.741Z,3.27
2022-08-26T18:11:30.110Z,3.00
2022-08-26T18:13:58.107Z,3.33
2022-08-26T18:16:26.228Z,3.87
2022-08-26T18:18:55.154Z,3.33
2022-08-26T18:21:27.787Z,3.90
2022-08-26T18:23:56.307Z,3.30
2022-08-26T18:26:37.496Z,3.03
2022-08-26T18:29:08.203Z,3.33
2022-08-26T18:31:36.058Z,3.50
2022-08-26T18:34:05.679Z,3.17
2022-08-26T18:36:37.346Z,3.40
2022-08-26T18:39:08.273Z,2.80
2022-08-26T18:41:55.161Z,2.80
2022-08-26T18:44:23.669Z,3.17
2022-08-26T18:46:53.170Z,2.67
2022-08-26T18:49:22.460Z,3.40
2022-08-26T18:51:52.349Z,2.90
2022-08-26T18:56:54.582Z,3.00
2022-08-26T18:59:28.421Z,3.27
2022-08-26T19:01:59.110Z,2.53
2022-08-26T19:04:27.298Z,2.83
2022-08-26T19:06:56.075Z,3.10
2022-08-26T19:09:26.389Z,3.30
2022-08-26T19:14:25.407Z,2.37
2022-08-26T19:16:53.496Z,2.43
2022-08-26T19:19:26.472Z,2.60
2022-08-26T19:21:54.133Z,2.20
2022-08-26T19:24:26.038Z,2.77
2022-08-26T19:27:02.082Z,2.30
2022-08-26T19:29:35.740Z,2.43
2022-08-26T19:32:04.675Z,2.10
2022-08-26T19:34:32.373Z,2.07
2022-08-26T19:36:59.913Z,3.07
2022-08-26T19:39:28.607Z,2.10
2022-08-26T19:41:56.885Z,2.10
2022-08-26T19:44:43.562Z,2.07
2022-08-26T19:47:13.121Z,2.23
2022-08-26T19:49:40.650Z,2.23
2022-08-26T19:52:11.073Z,2.50
2022-08-26T19:54:40.066Z,2.27
2022-08-26T19:57:07.645Z,2.33
2022-08-26T19:59:36.348Z,2.33
2022-08-26T20:02:10.581Z,2.50
2022-08-26T20:04:39.990Z,2.90
2022-08-26T20:07:09.197Z,3.57
2022-08-26T20:09:38.464Z,2.80
2022-08-26T20:12:08.711Z,3.20
2022-08-26T20:14:37.779Z,3.17
2022-08-26T20:17:06.516Z,3.47
2022-08-26T20:19:53.617Z,3.17
2022-08-26T20:22:22.581Z,3.80
2022-08-26T20:24:51.719Z,4.80
2022-08-26T20:27:19.241Z,3.70
2022-08-26T20:29:46.695Z,3.67
2022-08-26T20:32:14.225Z,3.73
2022-08-26T20:34:41.747Z,3.83
2022-08-26T20:37:09.750Z,3.50
2022-08-26T20:39:37.535Z,3.97
2022-08-26T20:42:06.879Z,4.30
2022-08-26T20:44:54.185Z,3.93
2022-08-26T20:47:23.387Z,4.40
2022-08-26T20:49:52.236Z,4.10
2022-08-26T20:52:20.585Z,4.57
2022-08-26T20:54:48.081Z,3.90
2022-08-26T20:57:15.973Z,3.23
2022-08-26T20:59:43.680Z,4.03
2022-08-26T21:02:11.278Z,3.83
2022-08-26T21:04:38.825Z,3.50
2022-08-26T21:07:07.626Z,3.47
2022-08-26T21:09:35.153Z,3.57
2022-08-26T21:12:03.397Z,3.90
2022-08-26T21:14:30.940Z,3.87
2022-08-26T21:16:58.687Z,3.30
2022-08-26T21:19:26.910Z,3.37
2022-08-26T21:21:54.463Z,3.77
2022-08-26T21:24:22.155Z,3.60
2022-08-26T21:26:49.875Z,4.10
2022-08-26T21:29:17.546Z,4.00
2022-08-26T21:31:46.751Z,3.90
2022-08-26T21:34:20.254Z,3.90
2022-08-26T21:36:48.764Z,4.50
2022-08-26T21:39:17.382Z,3.23
2022-08-26T21:41:47.320Z,3.80
2022-08-26T21:44:18.741Z,2.90
2022-08-26T21:46:47.122Z,3.57
2022-08-26T21:49:17.480Z,3.47
2022-08-26T21:51:48.694Z,3.33
2022-08-26T21:54:18.326Z,35.53
2022-08-26T21:56:48.120Z,3.50
2022-08-26T21:59:19.239Z,3.30
2022-08-26T22:01:49.188Z,3.67
2022-08-26T22:04:18.316Z,4.73
2022-08-26T22:06:54.957Z,3.60
2022-08-26T22:09:29.127Z,3.87
2022-08-26T22:11:58.699Z,3.50
2022-08-26T22:14:30.631Z,4.37
2022-08-26T22:17:00.308Z,3.70
2022-08-26T22:19:28.016Z,4.97
2022-08-26T22:21:56.948Z,4.60
2022-08-26T22:24:27.901Z,5.13
2022-08-26T22:26:56.314Z,4.63
2022-08-26T22:29:25.736Z,4.43
2022-08-26T22:31:53.862Z,4.43
2022-08-26T22:34:23.229Z,3.77
2022-08-26T22:36:51.095Z,4.47
2022-08-26T22:39:25.714Z,4.40
2022-08-26T22:41:55.327Z,4.00
2022-08-26T22:44:23.552Z,5.17
2022-08-26T22:46:54.432Z,5.50
2022-08-26T22:49:23.237Z,5.00
2022-08-26T22:51:51.234Z,5.10
2022-08-26T22:54:19.397Z,5.43
2022-08-26T22:56:46.943Z,5.40
2022-08-26T22:59:16.242Z,5.13
2022-08-26T23:01:44.939Z,5.07
2022-08-26T23:04:13.029Z,4.50
2022-08-26T23:06:47.715Z,4.90
2022-08-26T23:09:18.857Z,4.53
2022-08-26T23:11:48.680Z,4.93
2022-08-26T23:14:19.043Z,5.00
2022-08-26T23:16:47.731Z,4.67
2022-08-26T23:19:22.707Z,4.97
2022-08-26T23:21:52.357Z,4.73
2022-08-26T23:24:20.248Z,5.00
2022-08-26T23:26:47.975Z,4.13
2022-08-26T23:29:16.130Z,4.07
2022-08-26T23:31:44.142Z,4.20
2022-08-26T23:34:31.295Z,4.27
2022-08-26T23:37:00.304Z,4.10
2022-08-26T23:39:32.351Z,3.93
2022-08-26T23:42:01.777Z,4.23
2022-08-26T23:44:31.902Z,4.40
2022-08-26T23:47:00.847Z,4.93
2022-08-26T23:49:29.580Z,5.40
2022-08-26T23:52:15.922Z,4.03
2022-08-26T23:54:44.052Z,3.60
2022-08-26T23:57:12.634Z,3.47
2022-08-26T23:59:40.301Z,3.80
